createdAt,value
2022-12-08T00:02:51.127Z,103322.75
2022-12-08T00:08:17.161Z,103335.47
2022-12-08T00:13:22.895Z,103324.47
2022-12-08T00:18:28.887Z,103324.53
2022-12-08T00:23:34.748Z,103328.00
2022-12-08T00:28:40.350Z,103296.59
2022-12-08T00:33:46.121Z,103327.91
2022-12-08T00:38:52.062Z,103328.81
2022-12-08T00:43:58.013Z,103312.72
2022-12-08T00:49:05.567Z,103306.75
2022-12-08T00:54:11.381Z,103313.59
2022-12-08T00:59:17.669Z,103297.44
2022-12-08T01:04:23.593Z,103306.72
2022-12-08T01:09:29.180Z,103300.69
2022-12-08T01:14:35.465Z,103295.63
2022-12-08T01:19:41.358Z,103301.56
2022-12-08T01:24:46.981Z,103305.63
2022-12-08T01:29:52.808Z,103319.19
2022-12-08T01:34:58.557Z,103315.03
2022-12-08T01:40:04.773Z,103326.06
2022-12-08T01:45:34.697Z,103333.59
2022-12-08T01:50:41.638Z,103331.03
2022-12-08T01:56:19.573Z,103319.34
2022-12-08T02:01:25.600Z,103313.44
2022-12-08T02:06:35.782Z,103298.91
2022-12-08T02:11:41.420Z,103298.16
2022-12-08T02:17:43.787Z,103296.34
2022-12-08T02:23:10.270Z,103289.50
2022-12-08T02:28:41.476Z,103295.56
2022-12-08T02:33:58.452Z,103299.97
2022-12-08T02:39:40.141Z,103303.19
2022-12-08T02:50:30.844Z,103295.69
2022-12-08T02:56:05.843Z,103302.56
2022-12-08T03:01:41.425Z,103308.47
2022-12-08T03:07:22.226Z,103308.50
2022-12-08T03:12:50.885Z,103316.09
2022-12-08T03:17:59.919Z,103311.75
2022-12-08T03:23:08.849Z,103293.91
2022-12-08T03:28:14.987Z,103299.97
2022-12-08T03:33:32.159Z,103299.13
2022-12-08T03:39:02.048Z,103276.91
2022-12-08T03:44:07.812Z,103302.31
2022-12-08T03:49:13.476Z,103296.47
2022-12-08T03:54:19.435Z,103301.56
2022-12-08T03:59:25.182Z,103302.38
2022-12-08T04:04:31.447Z,103304.09
2022-12-08T04:09:37.107Z,103312.66
2022-12-08T04:14:42.838Z,103307.59
2022-12-08T04:19:48.249Z,103324.56
2022-12-08T04:24:54.591Z,103306.81
2022-12-08T04:30:00.424Z,103344.09
2022-12-08T04:35:04.796Z,103341.56
2022-12-08T04:40:11.030Z,103336.47
2022-12-08T04:45:16.942Z,103347.47
2022-12-08T04:50:24.083Z,103355.97
2022-12-08T04:55:28.655Z,103361.03
2022-12-08T05:00:33.846Z,103356.84
2022-12-08T05:05:38.261Z,103350.00
2022-12-08T05:10:43.414Z,103347.50
2022-12-08T05:15:49.077Z,103360.19
2022-12-08T05:20:54.910Z,103327.16
2022-12-08T05:26:00.038Z,103367.00
2022-12-08T05:31:04.536Z,103377.16
2022-12-08T05:36:10.932Z,103366.13
2022-12-08T05:41:17.861Z,103367.84
2022-12-08T05:46:22.627Z,103367.88
2022-12-08T05:51:27.402Z,103363.59
2022-12-08T05:56:31.616Z,103365.28
2022-12-08T06:01:36.301Z,103358.53
2022-12-08T06:06:40.728Z,103350.03
2022-12-08T06:11:47.058Z,103353.41
2022-12-08T06:16:51.430Z,103353.41
2022-12-08T06:21:55.646Z,103356.81
2022-12-08T06:26:59.958Z,103369.56
2022-12-08T06:32:04.278Z,103368.69
2022-12-08T06:43:41.760Z,103354.97
2022-12-08T06:48:46.825Z,103368.63
2022-12-08T06:53:51.397Z,103380.47
2022-12-08T06:58:55.578Z,103353.41
2022-12-08T07:03:59.875Z,103376.31
2022-12-08T07:09:04.444Z,103394.09
2022-12-08T07:14:08.773Z,103380.50
2022-12-08T07:19:12.909Z,103395.72
2022-12-08T07:24:17.162Z,103374.59
2022-12-08T07:29:26.242Z,103383.03
2022-12-08T07:34:30.830Z,103380.50
2022-12-08T07:39:35.052Z,103366.97
2022-12-08T07:44:39.302Z,103369.56
2022-12-08T07:49:43.484Z,103374.59
2022-12-08T07:54:48.304Z,103347.44
2022-12-08T07:59:52.604Z,103377.13
2022-12-08T08:04:56.880Z,103373.75
2022-12-08T08:10:01.153Z,103364.31
2022-12-08T08:15:08.307Z,103371.91
2022-12-08T08:20:13.855Z,103371.88
2022-12-08T08:25:19.754Z,103371.75
2022-12-08T08:30:24.100Z,103353.75
2022-12-08T08:35:29.071Z,103362.38
2022-12-08T08:40:33.538Z,103346.06
2022-12-08T08:45:37.956Z,103354.72
2022-12-08T08:50:42.146Z,103351.38
2022-12-08T08:55:46.873Z,103340.94
2022-12-08T09:00:51.215Z,103340.72
2022-12-08T09:05:57.224Z,103341.81
2022-12-08T09:11:01.855Z,103334.22
2022-12-08T09:16:08.514Z,103329.88
2022-12-08T09:21:17.317Z,103324.00
2022-12-08T09:26:23.037Z,103305.88
2022-12-08T09:31:27.915Z,103301.72
2022-12-08T09:36:33.011Z,103305.22
2022-12-08T09:41:49.410Z,103315.91
2022-12-08T09:46:55.100Z,103298.94
2022-12-08T09:52:00.353Z,103296.97
2022-12-08T09:57:11.999Z,103293.31
2022-12-08T10:02:27.292Z,103289.66
2022-12-08T10:07:59.802Z,103291.25
2022-12-08T10:13:13.501Z,103285.63
2022-12-08T10:18:21.455Z,103277.81
2022-12-08T10:23:34.332Z,103269.22
2022-12-08T10:28:44.484Z,103263.22
2022-12-08T10:33:58.702Z,103256.75
2022-12-08T10:39:02.937Z,103245.63
2022-12-08T10:44:10.529Z,103244.50
2022-12-08T10:49:34.248Z,103236.28
2022-12-08T10:54:39.012Z,103236.44
2022-12-08T10:59:43.509Z,103235.91
2022-12-08T11:04:48.394Z,103235.97
2022-12-08T11:09:59.170Z,103238.28
2022-12-08T11:15:05.912Z,103239.06
2022-12-08T11:20:10.381Z,103226.03
2022-12-08T11:25:26.736Z,103219.97
2022-12-08T11:30:39.245Z,103211.59
2022-12-08T11:35:51.537Z,103215.31
2022-12-08T11:41:01.994Z,103220.28
2022-12-08T11:46:30.044Z,103223.66
2022-12-08T11:51:45.287Z,103228.09
2022-12-08T11:57:01.579Z,103210.31
2022-12-08T12:02:12.872Z,103211.16
2022-12-08T12:07:21.636Z,103217.94
2022-12-08T12:12:50.644Z,103216.88
2022-12-08T12:18:04.431Z,103218.72
2022-12-08T12:23:15.916Z,103207.84
2022-12-08T12:28:20.416Z,103223.25
2022-12-08T12:33:25.410Z,103218.00
2022-12-08T12:39:04.895Z,103213.91
2022-12-08T12:44:25.310Z,103209.22
2022-12-08T12:49:52.264Z,103210.72
2022-12-08T12:54:57.795Z,103217.72
2022-12-08T13:00:02.000Z,103229.72
2022-12-08T13:05:24.242Z,103233.91
2022-12-08T13:10:40.166Z,103234.75
2022-12-08T13:15:47.590Z,103234.97
2022-12-08T13:20:58.095Z,103224.88
2022-12-08T13:26:23.808Z,103224.28
2022-12-08T13:31:56.680Z,103230.69
2022-12-08T13:37:15.019Z,103225.56
2022-12-08T13:42:22.625Z,103225.66
2022-12-08T13:47:35.177Z,103221.59
2022-12-08T13:58:21.389Z,103235.03
2022-12-08T14:03:25.844Z,103230.81
2022-12-08T14:09:00.121Z,103239.41
2022-12-08T14:14:32.734Z,103247.03
2022-12-08T14:19:56.718Z,103243.63
2022-12-08T14:25:06.194Z,103238.66
2022-12-08T14:30:15.955Z,103236.03
2022-12-08T14:35:28.927Z,103234.50
2022-12-08T14:40:43.232Z,103241.56
2022-12-08T14:45:51.399Z,103236.81
2022-12-08T14:51:14.884Z,103241.31
2022-12-08T14:56:55.472Z,103243.00
2022-12-08T15:02:44.015Z,103253.06
2022-12-08T15:08:14.164Z,103253.78
2022-12-08T15:13:20.509Z,103255.66
2022-12-08T15:18:37.980Z,103258.06
2022-12-08T15:23:51.047Z,103263.41
2022-12-08T15:28:57.260Z,103264.06
2022-12-08T15:34:02.886Z,103250.78
2022-12-08T15:39:34.597Z,103259.22
2022-12-08T15:44:41.145Z,103254.25
2022-12-08T15:49:47.856Z,103265.72
2022-12-08T15:54:53.652Z,103264.72
2022-12-08T15:59:59.699Z,103255.66
2022-12-08T16:05:40.855Z,103256.41
2022-12-08T16:10:59.285Z,103261.56
2022-12-08T16:16:02.656Z,103252.34
2022-12-08T16:21:22.675Z,103238.91
2022-12-08T16:27:50.733Z,103244.78
2022-12-08T16:32:04.176Z,103238.75
2022-12-08T16:37:18.882Z,103242.75
2022-12-08T16:42:41.213Z,103231.75
2022-12-08T16:48:13.535Z,103236.81
2022-12-08T16:53:19.252Z,103249.53
2022-12-08T16:58:24.973Z,103244.63
2022-12-08T17:03:30.875Z,103242.88
2022-12-08T17:08:36.656Z,103229.06
2022-12-08T17:13:43.057Z,103235.16
2022-12-08T17:18:49.270Z,103224.97
2022-12-08T17:23:54.826Z,103224.16
2022-12-08T17:29:02.810Z,103217.50
2022-12-08T17:34:11.737Z,103229.19
2022-12-08T17:39:19.357Z,103234.16
2022-12-08T17:44:25.351Z,103232.53
2022-12-08T17:49:31.696Z,103235.22
2022-12-08T17:54:38.156Z,103252.25
2022-12-08T17:59:43.866Z,103247.19
2022-12-08T18:04:50.088Z,103255.66
2022-12-08T18:09:56.054Z,103242.00
2022-12-08T18:15:02.474Z,103250.28
2022-12-08T18:20:09.185Z,103254.09
2022-12-08T18:25:15.224Z,103260.00
2022-12-08T18:30:21.237Z,103253.44
2022-12-08T18:35:27.531Z,103260.19
2022-12-08T18:40:33.114Z,103267.94
2022-12-08T18:45:40.465Z,103258.13
2022-12-08T18:50:46.940Z,103246.44
2022-12-08T18:55:52.751Z,103251.38
2022-12-08T19:00:58.439Z,103249.31
2022-12-08T19:06:05.597Z,103246.69
2022-12-08T19:18:56.306Z,103229.84
2022-12-08T19:24:02.156Z,103228.97
2022-12-08T19:29:08.668Z,103224.59
2022-12-08T19:34:15.023Z,103215.06
2022-12-08T19:39:44.944Z,103216.00
2022-12-08T19:44:53.567Z,103210.94
2022-12-08T19:50:18.874Z,103211.06
2022-12-08T19:55:25.174Z,103217.31
2022-12-08T20:00:32.110Z,103208.13
2022-12-08T20:05:38.222Z,103213.44
2022-12-08T20:10:45.115Z,103215.06
2022-12-08T20:15:51.106Z,103206.34
2022-12-08T20:20:57.667Z,103199.56
2022-12-08T20:26:14.240Z,103179.22
2022-12-08T20:31:32.084Z,103191.91
2022-12-08T20:36:37.838Z,103201.47
2022-12-08T20:41:45.261Z,103199.78
2022-12-08T20:46:50.956Z,103190.31
2022-12-08T20:51:57.300Z,103194.84
2022-12-08T20:57:03.267Z,103199.09
2022-12-08T21:02:11.192Z,103186.25
2022-12-08T21:07:17.231Z,103197.13
2022-12-08T21:12:22.855Z,103189.47
2022-12-08T21:17:28.738Z,103182.03
2022-12-08T21:22:34.672Z,103182.22
2022-12-08T21:27:40.633Z,103187.25
2022-12-08T21:32:46.593Z,103186.84
2022-12-08T21:37:52.712Z,103182.84
2022-12-08T21:42:58.420Z,103181.16
2022-12-08T21:48:10.906Z,103177.97
2022-12-08T21:53:19.061Z,103183.88
2022-12-08T21:58:25.002Z,103177.22
2022-12-08T22:03:30.896Z,103181.53
2022-12-08T22:08:37.511Z,103176.56
2022-12-08T22:13:43.808Z,103175.56
2022-12-08T22:18:49.420Z,103172.84
2022-12-08T22:23:55.052Z,103162.88
2022-12-08T22:29:00.898Z,103170.72
2022-12-08T22:34:06.832Z,103173.00
2022-12-08T22:39:12.871Z,103159.66
2022-12-08T22:44:18.514Z,103160.59
2022-12-08T22:49:26.676Z,103170.53
2022-12-08T22:54:32.517Z,103171.28
2022-12-08T22:59:43.777Z,103174.09
2022-12-08T23:04:49.694Z,103183.47
2022-12-08T23:09:55.569Z,103179.81
2022-12-08T23:15:01.136Z,103179.25
2022-12-08T23:20:08.722Z,103167.22
2022-12-08T23:25:15.112Z,103174.56
2022-12-08T23:30:20.835Z,103176.50
2022-12-08T23:35:26.553Z,103154.72
2022-12-08T23:40:32.382Z,103163.91
2022-12-08T23:45:37.991Z,103150.78
2022-12-08T23:50:43.892Z,103168.09
2022-12-08T23:55:49.754Z,103165.34
